sensor_id;sensor_type;location;lat;lon;timestamp;temperature;humidity
64961;SHT31;51487;52.266;10.542;2023-04-24T00:00:56;13.85;79.10
64961;SHT31;51487;52.266;10.542;2023-04-24T00:03:23;13.79;79.41
64961;SHT31;51487;52.266;10.542;2023-04-24T00:05:49;13.69;79.54
64961;SHT31;51487;52.266;10.542;2023-04-24T00:08:15;13.66;79.64
64961;SHT31;51487;52.266;10.542;2023-04-24T00:10:41;13.59;79.88
64961;SHT31;51487;52.266;10.542;2023-04-24T00:13:07;13.58;80.02
64961;SHT31;51487;52.266;10.542;2023-04-24T00:15:32;13.52;80.20
64961;SHT31;51487;52.266;10.542;2023-04-24T00:17:58;13.52;79.99
64961;SHT31;51487;52.266;10.542;2023-04-24T00:20:24;13.51;80.02
64961;SHT31;51487;52.266;10.542;2023-04-24T00:22:49;13.45;79.92
64961;SHT31;51487;52.266;10.542;2023-04-24T00:25:15;13.46;79.96
64961;SHT31;51487;52.266;10.542;2023-04-24T00:27:40;13.42;80.14
64961;SHT31;51487;52.266;10.542;2023-04-24T00:30:07;13.39;80.31
64961;SHT31;51487;52.266;10.542;2023-04-24T00:32:32;13.34;80.74
64961;SHT31;51487;52.266;10.542;2023-04-24T00:34:58;13.25;80.64
64961;SHT31;51487;52.266;10.542;2023-04-24T00:37:26;13.22;80.84
64961;SHT31;51487;52.266;10.542;2023-04-24T00:39:52;13.19;80.91
64961;SHT31;51487;52.266;10.542;2023-04-24T00:42:17;13.14;80.50
64961;SHT31;51487;52.266;10.542;2023-04-24T00:44:43;13.12;80.78
64961;SHT31;51487;52.266;10.542;2023-04-24T00:47:09;13.11;80.83
64961;SHT31;51487;52.266;10.542;2023-04-24T00:49:36;13.06;81.02
64961;SHT31;51487;52.266;10.542;2023-04-24T00:52:02;13.01;80.74
64961;SHT31;51487;52.266;10.542;2023-04-24T00:54:33;13.06;80.71
64961;SHT31;51487;52.266;10.542;2023-04-24T00:56:58;12.97;80.84
64961;SHT31;51487;52.266;10.542;2023-04-24T00:59:24;12.90;81.04
64961;SHT31;51487;52.266;10.542;2023-04-24T01:01:51;12.81;81.32
64961;SHT31;51487;52.266;10.542;2023-04-24T01:04:17;12.76;81.57
64961;SHT31;51487;52.266;10.542;2023-04-24T01:06:45;12.79;81.34
64961;SHT31;51487;52.266;10.542;2023-04-24T01:09:11;12.76;81.37
64961;SHT31;51487;52.266;10.542;2023-04-24T01:11:38;12.77;81.42
64961;SHT31;51487;52.266;10.542;2023-04-24T01:14:04;12.72;81.52
64961;SHT31;51487;52.266;10.542;2023-04-24T01:16:29;12.73;81.69
64961;SHT31;51487;52.266;10.542;2023-04-24T01:18:55;12.75;81.63
64961;SHT31;51487;52.266;10.542;2023-04-24T01:21:23;12.69;81.55
64961;SHT31;51487;52.266;10.542;2023-04-24T01:23:52;12.70;81.67
64961;SHT31;51487;52.266;10.542;2023-04-24T01:26:19;12.64;82.03
64961;SHT31;51487;52.266;10.542;2023-04-24T01:28:46;12.56;82.17
64961;SHT31;51487;52.266;10.542;2023-04-24T01:31:11;12.53;82.35
64961;SHT31;51487;52.266;10.542;2023-04-24T01:33:37;12.50;82.68
64961;SHT31;51487;52.266;10.542;2023-04-24T01:36:03;12.45;82.57
64961;SHT31;51487;52.266;10.542;2023-04-24T01:38:30;12.46;82.67
64961;SHT31;51487;52.266;10.542;2023-04-24T01:40:55;12.45;82.75
64961;SHT31;51487;52.266;10.542;2023-04-24T01:43:21;12.40;82.88
64961;SHT31;51487;52.266;10.542;2023-04-24T01:45:47;12.38;82.92
64961;SHT31;51487;52.266;10.542;2023-04-24T01:48:13;12.33;83.08
64961;SHT31;51487;52.266;10.542;2023-04-24T01:50:39;12.32;83.05
64961;SHT31;51487;52.266;10.542;2023-04-24T01:53:04;12.30;83.05
64961;SHT31;51487;52.266;10.542;2023-04-24T01:55:30;12.30;83.20
64961;SHT31;51487;52.266;10.542;2023-04-24T01:57:57;12.25;83.30
64961;SHT31;51487;52.266;10.542;2023-04-24T02:00:25;12.26;83.39
64961;SHT31;51487;52.266;10.542;2023-04-24T02:02:50;12.17;83.69
64961;SHT31;51487;52.266;10.542;2023-04-24T02:05:16;12.21;83.52
64961;SHT31;51487;52.266;10.542;2023-04-24T02:07:41;12.17;83.65
64961;SHT31;51487;52.266;10.542;2023-04-24T02:10:07;12.12;83.74
64961;SHT31;51487;52.266;10.542;2023-04-24T02:12:33;12.15;83.76
64961;SHT31;51487;52.266;10.542;2023-04-24T02:14:59;12.06;83.88
64961;SHT31;51487;52.266;10.542;2023-04-24T02:17:24;12.02;84.26
64961;SHT31;51487;52.266;10.542;2023-04-24T02:19:50;12.01;84.28
64961;SHT31;51487;52.266;10.542;2023-04-24T02:22:16;11.94;84.71
64961;SHT31;51487;52.266;10.542;2023-04-24T02:24:41;11.95;84.63
64961;SHT31;51487;52.266;10.542;2023-04-24T02:27:07;11.91;84.74
64961;SHT31;51487;52.266;10.542;2023-04-24T02:29:33;11.88;84.99
64961;SHT31;51487;52.266;10.542;2023-04-24T02:31:58;11.90;84.90
64961;SHT31;51487;52.266;10.542;2023-04-24T02:34:24;11.82;84.91
64961;SHT31;51487;52.266;10.542;2023-04-24T02:36:50;11.87;84.90
64961;SHT31;51487;52.266;10.542;2023-04-24T02:39:15;11.78;85.16
64961;SHT31;51487;52.266;10.542;2023-04-24T02:41:44;11.77;85.23
64961;SHT31;51487;52.266;10.542;2023-04-24T02:44:09;11.73;85.33
64961;SHT31;51487;52.266;10.542;2023-04-24T02:46:35;11.75;85.33
64961;SHT31;51487;52.266;10.542;2023-04-24T02:49:01;11.74;85.20
64961;SHT31;51487;52.266;10.542;2023-04-24T02:51:26;11.69;85.22
64961;SHT31;51487;52.266;10.542;2023-04-24T02:53:52;11.63;85.42
64961;SHT31;51487;52.266;10.542;2023-04-24T02:56:18;11.61;85.50
64961;SHT31;51487;52.266;10.542;2023-04-24T02:58:43;11.57;85.86
64961;SHT31;51487;52.266;10.542;2023-04-24T03:01:09;11.51;86.02
64961;SHT31;51487;52.266;10.542;2023-04-24T03:03:36;11.47;86.02
64961;SHT31;51487;52.266;10.542;2023-04-24T03:06:02;11.43;86.48
64961;SHT31;51487;52.266;10.542;2023-04-24T03:08:27;11.32;86.69
64961;SHT31;51487;52.266;10.542;2023-04-24T03:10:53;11.32;86.59
64961;SHT31;51487;52.266;10.542;2023-04-24T03:13:18;11.29;86.47
64961;SHT31;51487;52.266;10.542;2023-04-24T03:15:44;11.24;86.31
64961;SHT31;51487;52.266;10.542;2023-04-24T03:18:11;11.19;86.36
64961;SHT31;51487;52.266;10.542;2023-04-24T03:20:37;11.23;86.21
64961;SHT31;51487;52.266;10.542;2023-04-24T03:23:03;11.20;86.21
64961;SHT31;51487;52.266;10.542;2023-04-24T03:25:28;11.16;86.13
64961;SHT31;51487;52.266;10.542;2023-04-24T03:27:54;11.15;86.28
64961;SHT31;51487;52.266;10.542;2023-04-24T03:30:20;11.22;85.69
64961;SHT31;51487;52.266;10.542;2023-04-24T03:32:45;11.19;85.66
64961;SHT31;51487;52.266;10.542;2023-04-24T03:35:11;11.19;85.60
64961;SHT31;51487;52.266;10.542;2023-04-24T03:37:36;11.22;85.01
64961;SHT31;51487;52.266;10.542;2023-04-24T03:40:03;11.16;85.26
64961;SHT31;51487;52.266;10.542;2023-04-24T03:42:28;11.12;85.07
64961;SHT31;51487;52.266;10.542;2023-04-24T03:44:54;11.12;84.88
64961;SHT31;51487;52.266;10.542;2023-04-24T03:47:20;11.11;84.97
64961;SHT31;51487;52.266;10.542;2023-04-24T03:49:45;11.06;84.71
64961;SHT31;51487;52.266;10.542;2023-04-24T03:52:11;11.06;84.73
64961;SHT31;51487;52.266;10.542;2023-04-24T03:54:36;11.12;84.07
64961;SHT31;51487;52.266;10.542;2023-04-24T03:57:02;11.06;84.06
64961;SHT31;51487;52.266;10.542;2023-04-24T03:59:28;11.06;84.30
64961;SHT31;51487;52.266;10.542;2023-04-24T04:01:54;11.06;84.03
64961;SHT31;51487;52.266;10.542;2023-04-24T04:04:20;11.03;83.88
64961;SHT31;51487;52.266;10.542;2023-04-24T04:06:45;11.02;84.28
64961;SHT31;51487;52.266;10.542;2023-04-24T04:09:11;10.93;84.12
64961;SHT31;51487;52.266;10.542;2023-04-24T04:11:37;10.92;84.11
64961;SHT31;51487;52.266;10.542;2023-04-24T04:14:03;10.89;84.43
64961;SHT31;51487;52.266;10.542;2023-04-24T04:16:29;10.88;84.37
64961;SHT31;51487;52.266;10.542;2023-04-24T04:18:54;10.93;84.16
64961;SHT31;51487;52.266;10.542;2023-04-24T04:21:20;10.92;84.38
64961;SHT31;51487;52.266;10.542;2023-04-24T04:23:46;10.98;84.00
64961;SHT31;51487;52.266;10.542;2023-04-24T04:26:11;11.02;83.72
64961;SHT31;51487;52.266;10.542;2023-04-24T04:28:38;11.01;83.97
64961;SHT31;51487;52.266;10.542;2023-04-24T04:31:05;11.06;83.87
64961;SHT31;51487;52.266;10.542;2023-04-24T04:33:31;11.08;83.59
64961;SHT31;51487;52.266;10.542;2023-04-24T04:35:57;11.11;83.70
64961;SHT31;51487;52.266;10.542;2023-04-24T04:38:22;11.12;83.65
64961;SHT31;51487;52.266;10.542;2023-04-24T04:40:48;11.19;83.56
64961;SHT31;51487;52.266;10.542;2023-04-24T04:43:14;11.19;83.39
64961;SHT31;51487;52.266;10.542;2023-04-24T04:45:40;11.22;83.45
64961;SHT31;51487;52.266;10.542;2023-04-24T04:48:07;11.26;83.50
64961;SHT31;51487;52.266;10.542;2023-04-24T04:50:38;11.36;83.60
64961;SHT31;51487;52.266;10.542;2023-04-24T04:53:04;11.41;83.39
64961;SHT31;51487;52.266;10.542;2023-04-24T04:55:29;11.50;83.33
64961;SHT31;51487;52.266;10.542;2023-04-24T04:57:55;11.57;83.34
64961;SHT31;51487;52.266;10.542;2023-04-24T05:00:22;11.71;83.13
64961;SHT31;51487;52.266;10.542;2023-04-24T05:02:50;11.81;83.03
64961;SHT31;51487;52.266;10.542;2023-04-24T05:05:16;11.90;82.68
64961;SHT31;51487;52.266;10.542;2023-04-24T05:07:43;12.04;82.33
64961;SHT31;51487;52.266;10.542;2023-04-24T05:10:12;12.09;82.20
64961;SHT31;51487;52.266;10.542;2023-04-24T05:12:37;12.28;81.84
64961;SHT31;51487;52.266;10.542;2023-04-24T05:15:03;12.35;81.59
64961;SHT31;51487;52.266;10.542;2023-04-24T05:17:29;12.42;81.34
64961;SHT31;51487;52.266;10.542;2023-04-24T05:19:54;12.43;80.90
64961;SHT31;51487;52.266;10.542;2023-04-24T05:22:20;12.49;80.77
64961;SHT31;51487;52.266;10.542;2023-04-24T05:24:47;12.57;80.81
64961;SHT31;51487;52.266;10.542;2023-04-24T05:27:13;12.64;80.65
64961;SHT31;51487;52.266;10.542;2023-04-24T05:29:39;12.60;80.23
64961;SHT31;51487;52.266;10.542;2023-04-24T05:32:05;12.59;80.36
64961;SHT31;51487;52.266;10.542;2023-04-24T05:34:31;12.57;80.72
64961;SHT31;51487;52.266;10.542;2023-04-24T05:36:57;12.56;80.65
64961;SHT31;51487;52.266;10.542;2023-04-24T05:39:22;12.55;81.14
64961;SHT31;51487;52.266;10.542;2023-04-24T05:41:50;12.67;80.61
64961;SHT31;51487;52.266;10.542;2023-04-24T05:44:16;12.66;80.47
64961;SHT31;51487;52.266;10.542;2023-04-24T05:46:41;12.69;80.63
64961;SHT31;51487;52.266;10.542;2023-04-24T05:49:07;12.84;80.34
64961;SHT31;51487;52.266;10.542;2023-04-24T05:51:32;12.81;79.82
64961;SHT31;51487;52.266;10.542;2023-04-24T05:53:58;12.84;79.41
64961;SHT31;51487;52.266;10.542;2023-04-24T05:56:24;12.88;80.17
64961;SHT31;51487;52.266;10.542;2023-04-24T05:58:49;13.08;79.75
64961;SHT31;51487;52.266;10.542;2023-04-24T06:01:15;13.14;78.66
64961;SHT31;51487;52.266;10.542;2023-04-24T06:03:41;13.39;78.21
64961;SHT31;51487;52.266;10.542;2023-04-24T06:06:07;13.49;77.04
64961;SHT31;51487;52.266;10.542;2023-04-24T06:08:34;13.54;77.26
64961;SHT31;51487;52.266;10.542;2023-04-24T06:11:00;13.51;78.04
64961;SHT31;51487;52.266;10.542;2023-04-24T06:13:26;13.39;77.71
64961;SHT31;51487;52.266;10.542;2023-04-24T06:15:52;13.41;77.87
64961;SHT31;51487;52.266;10.542;2023-04-24T06:18:18;13.34;78.06
64961;SHT31;51487;52.266;10.542;2023-04-24T06:20:44;13.37;78.10
64961;SHT31;51487;52.266;10.542;2023-04-24T06:23:10;13.35;78.46
64961;SHT31;51487;52.266;10.542;2023-04-24T06:25:35;13.34;78.63
64961;SHT31;51487;52.266;10.542;2023-04-24T06:28:01;13.41;78.58
64961;SHT31;51487;52.266;10.542;2023-04-24T06:30:27;13.31;79.49
64961;SHT31;51487;52.266;10.542;2023-04-24T06:32:53;13.42;79.25
64961;SHT31;51487;52.266;10.542;2023-04-24T06:35:19;13.45;79.64
64961;SHT31;51487;52.266;10.542;2023-04-24T06:37:45;13.41;79.87
64961;SHT31;51487;52.266;10.542;2023-04-24T06:40:11;13.28;80.44
64961;SHT31;51487;52.266;10.542;2023-04-24T06:42:36;13.35;80.52
64961;SHT31;51487;52.266;10.542;2023-04-24T06:45:02;13.44;80.63
64961;SHT31;51487;52.266;10.542;2023-04-24T06:47:29;13.45;80.23
64961;SHT31;51487;52.266;10.542;2023-04-24T06:49:54;13.59;80.29
64961;SHT31;51487;52.266;10.542;2023-04-24T06:52:20;13.73;79.78
64961;SHT31;51487;52.266;10.542;2023-04-24T06:54:46;13.77;79.74
64961;SHT31;51487;52.266;10.542;2023-04-24T06:57:12;13.87;79.34
64961;SHT31;51487;52.266;10.542;2023-04-24T06:59:38;13.76;79.90
64961;SHT31;51487;52.266;10.542;2023-04-24T07:02:03;13.90;79.69
64961;SHT31;51487;52.266;10.542;2023-04-24T07:04:29;13.96;79.17
64961;SHT31;51487;52.266;10.542;2023-04-24T07:06:56;13.91;78.83
64961;SHT31;51487;52.266;10.542;2023-04-24T07:09:24;13.89;78.98
64961;SHT31;51487;52.266;10.542;2023-04-24T07:11:54;13.87;79.25
64961;SHT31;51487;52.266;10.542;2023-04-24T07:14:20;14.02;78.64
64961;SHT31;51487;52.266;10.542;2023-04-24T07:16:46;13.95;78.56
64961;SHT31;51487;52.266;10.542;2023-04-24T07:19:13;14.03;78.32
64961;SHT31;51487;52.266;10.542;2023-04-24T07:21:39;14.09;77.38
64961;SHT31;51487;52.266;10.542;2023-04-24T07:24:05;14.34;77.02
64961;SHT31;51487;52.266;10.542;2023-04-24T07:26:31;14.61;76.61
64961;SHT31;51487;52.266;10.542;2023-04-24T07:28:57;14.45;75.87
64961;SHT31;51487;52.266;10.542;2023-04-24T07:31:22;14.21;76.04
64961;SHT31;51487;52.266;10.542;2023-04-24T07:33:48;13.96;70.60
64961;SHT31;51487;52.266;10.542;2023-04-24T07:36:14;13.17;70.43
64961;SHT31;51487;52.266;10.542;2023-04-24T07:38:46;12.86;70.94
64961;SHT31;51487;52.266;10.542;2023-04-24T07:41:15;12.69;72.78
64961;SHT31;51487;52.266;10.542;2023-04-24T07:43:41;12.25;75.22
64961;SHT31;51487;52.266;10.542;2023-04-24T07:46:08;11.95;78.78
64961;SHT31;51487;52.266;10.542;2023-04-24T07:48:36;11.66;80.87
64961;SHT31;51487;52.266;10.542;2023-04-24T07:51:01;11.50;83.84
64961;SHT31;51487;52.266;10.542;2023-04-24T07:53:27;11.64;84.53
64961;SHT31;51487;52.266;10.542;2023-04-24T07:55:55;11.73;84.98
64961;SHT31;51487;52.266;10.542;2023-04-24T07:58:21;11.77;84.50
64961;SHT31;51487;52.266;10.542;2023-04-24T08:00:46;11.97;84.46
64961;SHT31;51487;52.266;10.542;2023-04-24T08:03:12;11.95;85.35
64961;SHT31;51487;52.266;10.542;2023-04-24T08:05:38;12.17;85.40
64961;SHT31;51487;52.266;10.542;2023-04-24T08:08:04;12.18;83.52
64961;SHT31;51487;52.266;10.542;2023-04-24T08:10:30;12.36;83.77
64961;SHT31;51487;52.266;10.542;2023-04-24T08:12:55;12.32;83.61
64961;SHT31;51487;52.266;10.542;2023-04-24T08:15:21;12.60;83.89
64961;SHT31;51487;52.266;10.542;2023-04-24T08:17:46;12.79;83.63
64961;SHT31;51487;52.266;10.542;2023-04-24T08:20:12;13.19;82.42
64961;SHT31;51487;52.266;10.542;2023-04-24T08:22:42;13.42;82.53
64961;SHT31;51487;52.266;10.542;2023-04-24T08:25:09;13.58;81.52
64961;SHT31;51487;52.266;10.542;2023-04-24T08:27:36;13.61;80.71
64961;SHT31;51487;52.266;10.542;2023-04-24T08:30:03;13.87;80.37
64961;SHT31;51487;52.266;10.542;2023-04-24T08:32:29;13.82;79.43
64961;SHT31;51487;52.266;10.542;2023-04-24T08:34:56;13.95;79.08
64961;SHT31;51487;52.266;10.542;2023-04-24T08:37:23;13.63;80.48
64961;SHT31;51487;52.266;10.542;2023-04-24T08:39:50;13.63;80.41
64961;SHT31;51487;52.266;10.542;2023-04-24T08:42:17;13.35;79.44
64961;SHT31;51487;52.266;10.542;2023-04-24T08:44:44;13.52;79.92
64961;SHT31;51487;52.266;10.542;2023-04-24T08:47:11;13.55;79.30
64961;SHT31;51487;52.266;10.542;2023-04-24T08:49:38;13.66;78.24
64961;SHT31;51487;52.266;10.542;2023-04-24T08:52:07;14.20;77.70
64961;SHT31;51487;52.266;10.542;2023-04-24T08:54:36;14.35;74.47
64961;SHT31;51487;52.266;10.542;2023-04-24T08:57:03;14.31;74.78
64961;SHT31;51487;52.266;10.542;2023-04-24T08:59:32;14.27;74.39
64961;SHT31;51487;52.266;10.542;2023-04-24T09:02:02;14.14;71.47
64961;SHT31;51487;52.266;10.542;2023-04-24T09:04:29;13.97;71.38
64961;SHT31;51487;52.266;10.542;2023-04-24T09:06:56;14.14;69.94
64961;SHT31;51487;52.266;10.542;2023-04-24T09:09:24;14.10;70.01
64961;SHT31;51487;52.266;10.542;2023-04-24T09:11:52;14.06;68.71
64961;SHT31;51487;52.266;10.542;2023-04-24T09:14:20;14.18;68.81
64961;SHT31;51487;52.266;10.542;2023-04-24T09:16:46;14.24;67.94
64961;SHT31;51487;52.266;10.542;2023-04-24T09:19:13;14.23;67.62
64961;SHT31;51487;52.266;10.542;2023-04-24T09:21:38;14.28;66.74
64961;SHT31;51487;52.266;10.542;2023-04-24T09:24:14;14.24;66.87
64961;SHT31;51487;52.266;10.542;2023-04-24T09:26:43;14.35;66.62
64961;SHT31;51487;52.266;10.542;2023-04-24T09:29:18;14.54;65.56
64961;SHT31;51487;52.266;10.542;2023-04-24T09:31:45;14.60;65.10
64961;SHT31;51487;52.266;10.542;2023-04-24T09:34:12;14.57;65.37
64961;SHT31;51487;52.266;10.542;2023-04-24T09:36:41;14.67;65.38
64961;SHT31;51487;52.266;10.542;2023-04-24T09:39:12;14.95;63.98
64961;SHT31;51487;52.266;10.542;2023-04-24T09:42:01;14.82;65.33
64961;SHT31;51487;52.266;10.542;2023-04-24T09:44:28;14.81;63.77
64961;SHT31;51487;52.266;10.542;2023-04-24T09:46:57;14.95;61.89
64961;SHT31;51487;52.266;10.542;2023-04-24T09:49:25;15.14;61.91
64961;SHT31;51487;52.266;10.542;2023-04-24T09:51:51;15.13;62.53
64961;SHT31;51487;52.266;10.542;2023-04-24T09:54:21;15.23;62.34
64961;SHT31;51487;52.266;10.542;2023-04-24T09:56:50;15.18;63.81
64961;SHT31;51487;52.266;10.542;2023-04-24T09:59:18;15.19;63.20
64961;SHT31;51487;52.266;10.542;2023-04-24T10:01:44;15.44;61.41
64961;SHT31;51487;52.266;10.542;2023-04-24T10:04:24;15.43;61.25
64961;SHT31;51487;52.266;10.542;2023-04-24T10:06:53;15.26;61.48
64961;SHT31;51487;52.266;10.542;2023-04-24T10:09:22;14.93;62.91
64961;SHT31;51487;52.266;10.542;2023-04-24T10:11:50;14.78;62.59
64961;SHT31;51487;52.266;10.542;2023-04-24T10:14:27;14.55;64.50
64961;SHT31;51487;52.266;10.542;2023-04-24T10:16:54;14.68;63.73
64961;SHT31;51487;52.266;10.542;2023-04-24T10:19:26;14.82;63.21
64961;SHT31;51487;52.266;10.542;2023-04-24T10:21:52;14.82;62.18
64961;SHT31;51487;52.266;10.542;2023-04-24T10:24:19;14.81;62.97
64961;SHT31;51487;52.266;10.542;2023-04-24T10:26:48;14.68;62.65
64961;SHT31;51487;52.266;10.542;2023-04-24T10:29:17;14.67;61.96
64961;SHT31;51487;52.266;10.542;2023-04-24T10:31:44;14.61;61.52
64961;SHT31;51487;52.266;10.542;2023-04-24T10:34:11;14.91;61.43
64961;SHT31;51487;52.266;10.542;2023-04-24T10:36:45;15.09;61.46
64961;SHT31;51487;52.266;10.542;2023-04-24T10:39:13;15.03;61.75
64961;SHT31;51487;52.266;10.542;2023-04-24T10:41:43;15.12;61.05
64961;SHT31;51487;52.266;10.542;2023-04-24T10:44:11;14.99;61.64
64961;SHT31;51487;52.266;10.542;2023-04-24T10:46:39;14.88;61.65
64961;SHT31;51487;52.266;10.542;2023-04-24T10:49:08;15.02;61.54
64961;SHT31;51487;52.266;10.542;2023-04-24T10:59:45;15.07;60.06
64961;SHT31;51487;52.266;10.542;2023-04-24T11:02:10;15.07;59.92
64961;SHT31;51487;52.266;10.542;2023-04-24T11:04:36;14.92;59.86
64961;SHT31;51487;52.266;10.542;2023-04-24T11:07:05;14.93;60.38
64961;SHT31;51487;52.266;10.542;2023-04-24T11:09:31;15.07;60.36
64961;SHT31;51487;52.266;10.542;2023-04-24T11:12:09;15.67;59.77
64961;SHT31;51487;52.266;10.542;2023-04-24T11:17:35;15.65;59.23
64961;SHT31;51487;52.266;10.542;2023-04-24T11:20:11;15.85;56.93
64961;SHT31;51487;52.266;10.542;2023-04-24T11:22:39;15.64;57.57
64961;SHT31;51487;52.266;10.542;2023-04-24T11:25:08;15.43;57.49
64961;SHT31;51487;52.266;10.542;2023-04-24T11:27:43;15.46;57.85
64961;SHT31;51487;52.266;10.542;2023-04-24T11:30:10;15.37;58.17
64961;SHT31;51487;52.266;10.542;2023-04-24T11:32:42;15.58;57.10
64961;SHT31;51487;52.266;10.542;2023-04-24T11:35:20;15.46;57.64
64961;SHT31;51487;52.266;10.542;2023-04-24T11:37:49;15.55;58.45
64961;SHT31;51487;52.266;10.542;2023-04-24T11:40:16;15.85;57.79
64961;SHT31;51487;52.266;10.542;2023-04-24T11:42:45;15.58;57.89
64961;SHT31;51487;52.266;10.542;2023-04-24T11:47:43;15.29;58.49
64961;SHT31;51487;52.266;10.542;2023-04-24T11:50:13;15.44;58.30
64961;SHT31;51487;52.266;10.542;2023-04-24T11:52:45;15.46;58.72
64961;SHT31;51487;52.266;10.542;2023-04-24T11:57:43;15.18;58.61
64961;SHT31;51487;52.266;10.542;2023-04-24T12:00:24;15.13;59.07
64961;SHT31;51487;52.266;10.542;2023-04-24T12:02:51;15.14;59.59
64961;SHT31;51487;52.266;10.542;2023-04-24T12:05:25;15.36;58.75
64961;SHT31;51487;52.266;10.542;2023-04-24T12:07:54;15.37;59.69
64961;SHT31;51487;52.266;10.542;2023-04-24T12:10:26;15.58;58.77
64961;SHT31;51487;52.266;10.542;2023-04-24T12:12:53;15.57;58.29
64961;SHT31;51487;52.266;10.542;2023-04-24T12:15:20;15.55;57.99
64961;SHT31;51487;52.266;10.542;2023-04-24T12:17:46;15.54;58.90
64961;SHT31;51487;52.266;10.542;2023-04-24T12:20:13;15.42;59.39
64961;SHT31;51487;52.266;10.542;2023-04-24T12:22:53;15.18;59.72
64961;SHT31;51487;52.266;10.542;2023-04-24T12:25:41;14.85;60.26
64961;SHT31;51487;52.266;10.542;2023-04-24T12:28:13;15.09;60.01
64961;SHT31;51487;52.266;10.542;2023-04-24T12:30:48;15.22;60.00
64961;SHT31;51487;52.266;10.542;2023-04-24T12:33:21;15.07;60.05
64961;SHT31;51487;52.266;10.542;2023-04-24T12:35:51;14.99;61.23
64961;SHT31;51487;52.266;10.542;2023-04-24T12:38:22;14.64;61.71
64961;SHT31;51487;52.266;10.542;2023-04-24T12:41:03;14.47;62.81
64961;SHT31;51487;52.266;10.542;2023-04-24T12:43:29;14.47;65.01
64961;SHT31;51487;52.266;10.542;2023-04-24T12:45:55;14.16;67.05
64961;SHT31;51487;52.266;10.542;2023-04-24T12:48:20;14.20;67.40
64961;SHT31;51487;52.266;10.542;2023-04-24T12:50:47;14.20;66.37
64961;SHT31;51487;52.266;10.542;2023-04-24T12:53:13;14.52;64.19
64961;SHT31;51487;52.266;10.542;2023-04-24T12:55:39;14.72;64.84
64961;SHT31;51487;52.266;10.542;2023-04-24T12:58:05;14.74;63.60
64961;SHT31;51487;52.266;10.542;2023-04-24T13:00:31;14.52;63.97
64961;SHT31;51487;52.266;10.542;2023-04-24T13:02:56;14.24;64.23
64961;SHT31;51487;52.266;10.542;2023-04-24T13:05:22;14.09;64.52
64961;SHT31;51487;52.266;10.542;2023-04-24T13:07:47;13.48;66.89
64961;SHT31;51487;52.266;10.542;2023-04-24T13:10:13;13.11;68.13
64961;SHT31;51487;52.266;10.542;2023-04-24T13:12:39;13.11;70.68
64961;SHT31;51487;52.266;10.542;2023-04-24T13:15:07;13.06;71.65
64961;SHT31;51487;52.266;10.542;2023-04-24T13:17:33;13.31;72.15
64961;SHT31;51487;52.266;10.542;2023-04-24T13:19:58;13.66;69.97
64961;SHT31;51487;52.266;10.542;2023-04-24T13:22:24;14.00;70.30
64961;SHT31;51487;52.266;10.542;2023-04-24T13:24:50;13.73;69.46
64961;SHT31;51487;52.266;10.542;2023-04-24T13:27:17;13.72;68.15
64961;SHT31;51487;52.266;10.542;2023-04-24T13:29:43;13.65;68.65
64961;SHT31;51487;52.266;10.542;2023-04-24T13:32:09;13.70;68.28
64961;SHT31;51487;52.266;10.542;2023-04-24T13:34:35;13.61;67.01
64961;SHT31;51487;52.266;10.542;2023-04-24T13:37:01;13.14;68.13
64961;SHT31;51487;52.266;10.542;2023-04-24T13:39:29;13.03;68.63
64961;SHT31;51487;52.266;10.542;2023-04-24T13:41:55;12.94;68.83
64961;SHT31;51487;52.266;10.542;2023-04-24T13:44:21;12.80;69.48
64961;SHT31;51487;52.266;10.542;2023-04-24T13:46:50;12.84;69.77
64961;SHT31;51487;52.266;10.542;2023-04-24T13:49:17;13.06;70.24
64961;SHT31;51487;52.266;10.542;2023-04-24T13:51:43;13.01;67.70
64961;SHT31;51487;52.266;10.542;2023-04-24T13:54:09;13.14;67.34
64961;SHT31;51487;52.266;10.542;2023-04-24T13:56:35;13.18;67.78
64961;SHT31;51487;52.266;10.542;2023-04-24T13:59:00;13.39;66.82
64961;SHT31;51487;52.266;10.542;2023-04-24T14:01:26;12.98;67.45
64961;SHT31;51487;52.266;10.542;2023-04-24T14:03:53;13.00;67.81
64961;SHT31;51487;52.266;10.542;2023-04-24T14:06:20;12.86;68.28
64961;SHT31;51487;52.266;10.542;2023-04-24T14:08:46;13.18;67.82
64961;SHT31;51487;52.266;10.542;2023-04-24T14:11:13;12.73;68.80
64961;SHT31;51487;52.266;10.542;2023-04-24T14:13:41;12.42;69.98
64961;SHT31;51487;52.266;10.542;2023-04-24T14:16:06;12.40;69.66
64961;SHT31;51487;52.266;10.542;2023-04-24T14:18:32;12.24;70.10
64961;SHT31;51487;52.266;10.542;2023-04-24T14:20:58;11.98;70.94
64961;SHT31;51487;52.266;10.542;2023-04-24T14:23:24;11.84;71.74
64961;SHT31;51487;52.266;10.542;2023-04-24T14:25:49;11.56;73.17
64961;SHT31;51487;52.266;10.542;2023-04-24T14:28:18;11.63;73.28
64961;SHT31;51487;52.266;10.542;2023-04-24T14:30:44;11.59;73.09
64961;SHT31;51487;52.266;10.542;2023-04-24T14:33:10;11.77;72.59
64961;SHT31;51487;52.266;10.542;2023-04-24T14:35:37;11.74;72.32
64961;SHT31;51487;52.266;10.542;2023-04-24T14:38:03;11.56;73.06
64961;SHT31;51487;52.266;10.542;2023-04-24T14:40:28;11.40;73.13
64961;SHT31;51487;52.266;10.542;2023-04-24T14:42:54;11.27;73.57
64961;SHT31;51487;52.266;10.542;2023-04-24T14:45:19;11.03;73.83
64961;SHT31;51487;52.266;10.542;2023-04-24T14:47:45;10.96;74.14
64961;SHT31;51487;52.266;10.542;2023-04-24T14:50:11;10.91;74.80
64961;SHT31;51487;52.266;10.542;2023-04-24T14:52:38;10.69;75.98
64961;SHT31;51487;52.266;10.542;2023-04-24T14:55:05;10.60;77.14
64961;SHT31;51487;52.266;10.542;2023-04-24T14:57:32;10.64;77.53
64961;SHT31;51487;52.266;10.542;2023-04-24T14:59:58;10.60;77.64
64961;SHT31;51487;52.266;10.542;2023-04-24T15:02:23;10.40;78.54
64961;SHT31;51487;52.266;10.542;2023-04-24T15:04:49;10.36;79.11
64961;SHT31;51487;52.266;10.542;2023-04-24T15:07:15;10.37;79.07
64961;SHT31;51487;52.266;10.542;2023-04-24T15:09:40;10.53;78.30
64961;SHT31;51487;52.266;10.542;2023-04-24T15:12:06;10.60;77.40
64961;SHT31;51487;52.266;10.542;2023-04-24T15:14:32;10.47;77.84
64961;SHT31;51487;52.266;10.542;2023-04-24T15:16:57;10.53;78.22
64961;SHT31;51487;52.266;10.542;2023-04-24T15:19:23;10.47;78.48
64961;SHT31;51487;52.266;10.542;2023-04-24T15:21:48;10.48;78.27
64961;SHT31;51487;52.266;10.542;2023-04-24T15:24:14;10.62;79.04
64961;SHT31;51487;52.266;10.542;2023-04-24T15:26:39;10.54;79.55
64961;SHT31;51487;52.266;10.542;2023-04-24T15:29:05;10.44;80.36